sensor_id;sensor_type;location;lat;lon;timestamp;P1;P2;P0
40277;PMS7003;25990;52.768;16.930;2024-02-26T00:00:19;64;41;28
40277;PMS7003;25990;52.768;16.930;2024-02-26T00:02:42;67;45;27
40277;PMS7003;25990;52.768;16.930;2024-02-26T00:05:05;62;41;25
40277;PMS7003;25990;52.768;16.930;2024-02-26T00:07:26;51;39;27
40277;PMS7003;25990;52.768;16.930;2024-02-26T00:09:49;51;42;29
40277;PMS7003;25990;52.768;16.930;2024-02-26T00:12:11;63;44;30
40277;PMS7003;25990;52.768;16.930;2024-02-26T00:14:33;52;40;28
40277;PMS7003;25990;52.768;16.930;2024-02-26T00:16:59;56;43;29
40277;PMS7003;25990;52.768;16.930;2024-02-26T00:19:21;61;43;29
40277;PMS7003;25990;52.768;16.930;2024-02-26T00:21:43;62;41;26
40277;PMS7003;25990;52.768;16.930;2024-02-26T00:24:06;66;46;31
40277;PMS7003;25990;52.768;16.930;2024-02-26T00:26:28;71;48;30
40277;PMS7003;25990;52.768;16.930;2024-02-26T00:28:50;68;41;27
40277;PMS7003;25990;52.768;16.930;2024-02-26T00:31:13;58;45;28
40277;PMS7003;25990;52.768;16.930;2024-02-26T00:33:35;54;38;26
40277;PMS7003;25990;52.768;16.930;2024-02-26T00:35:57;61;47;31
40277;PMS7003;25990;52.768;16.930;2024-02-26T00:38:20;19;19;17
40277;PMS7003;25990;52.768;16.930;2024-02-26T00:40:42;50;38;25
40277;PMS7003;25990;52.768;16.930;2024-02-26T00:43:04;53;39;26
40277;PMS7003;25990;52.768;16.930;2024-02-26T00:45:27;57;44;27
40277;PMS7003;25990;52.768;16.930;2024-02-26T00:47:49;60;45;27
40277;PMS7003;25990;52.768;16.930;2024-02-26T00:50:11;53;41;28
40277;PMS7003;25990;52.768;16.930;2024-02-26T00:52:34;43;37;25
40277;PMS7003;25990;52.768;16.930;2024-02-26T00:54:56;51;38;24
40277;PMS7003;25990;52.768;16.930;2024-02-26T00:57:19;57;41;28
40277;PMS7003;25990;52.768;16.930;2024-02-26T00:59:41;62;41;27
40277;PMS7003;25990;52.768;16.930;2024-02-26T01:02:03;39;26;13
40277;PMS7003;25990;52.768;16.930;2024-02-26T01:04:26;52;32;22
40277;PMS7003;25990;52.768;16.930;2024-02-26T01:06:48;40;35;22
40277;PMS7003;25990;52.768;16.930;2024-02-26T01:09:11;58;42;26
40277;PMS7003;25990;52.768;16.930;2024-02-26T01:11:33;53;42;28
40277;PMS7003;25990;52.768;16.930;2024-02-26T01:13:55;63;48;30
40277;PMS7003;25990;52.768;16.930;2024-02-26T01:16:17;52;40;26
40277;PMS7003;25990;52.768;16.930;2024-02-26T01:18:40;61;46;29
40277;PMS7003;25990;52.768;16.930;2024-02-26T01:21:02;55;42;28
40277;PMS7003;25990;52.768;16.930;2024-02-26T01:23:24;70;46;28
40277;PMS7003;25990;52.768;16.930;2024-02-26T01:25:50;71;50;31
40277;PMS7003;25990;52.768;16.930;2024-02-26T01:28:12;63;41;28
40277;PMS7003;25990;52.768;16.930;2024-02-26T01:30:34;57;44;30
40277;PMS7003;25990;52.768;16.930;2024-02-26T01:32:57;56;47;30
40277;PMS7003;25990;52.768;16.930;2024-02-26T01:35:19;69;48;30
40277;PMS7003;25990;52.768;16.930;2024-02-26T01:37:41;62;45;29
40277;PMS7003;25990;52.768;16.930;2024-02-26T01:40:05;60;43;29
40277;PMS7003;25990;52.768;16.930;2024-02-26T01:42:26;58;40;27
40277;PMS7003;25990;52.768;16.930;2024-02-26T01:44:48;56;38;26
40277;PMS7003;25990;52.768;16.930;2024-02-26T01:47:11;61;44;28
40277;PMS7003;25990;52.768;16.930;2024-02-26T01:49:33;47;32;19
40277;PMS7003;25990;52.768;16.930;2024-02-26T01:51:55;56;39;28
40277;PMS7003;25990;52.768;16.930;2024-02-26T01:54:18;55;39;27
40277;PMS7003;25990;52.768;16.930;2024-02-26T01:56:40;44;31;18
40277;PMS7003;25990;52.768;16.930;2024-02-26T01:59:03;46;35;22
40277;PMS7003;25990;52.768;16.930;2024-02-26T02:01:25;52;38;28
40277;PMS7003;25990;52.768;16.930;2024-02-26T02:03:47;58;37;24
40277;PMS7003;25990;52.768;16.930;2024-02-26T02:06:10;55;39;28
40277;PMS7003;25990;52.768;16.930;2024-02-26T02:08:32;55;45;29
40277;PMS7003;25990;52.768;16.930;2024-02-26T02:10:55;58;37;25
40277;PMS7003;25990;52.768;16.930;2024-02-26T02:13:17;47;38;25
40277;PMS7003;25990;52.768;16.930;2024-02-26T02:15:39;57;42;29
40277;PMS7003;25990;52.768;16.930;2024-02-26T02:18:01;60;42;28
40277;PMS7003;25990;52.768;16.930;2024-02-26T02:20:25;52;38;25
40277;PMS7003;25990;52.768;16.930;2024-02-26T02:22:46;49;34;23
40277;PMS7003;25990;52.768;16.930;2024-02-26T02:25:08;60;44;28
40277;PMS7003;25990;52.768;16.930;2024-02-26T02:27:31;51;39;23
40277;PMS7003;25990;52.768;16.930;2024-02-26T02:29:53;59;40;28
40277;PMS7003;25990;52.768;16.930;2024-02-26T02:32:16;56;43;29
40277;PMS7003;25990;52.768;16.930;2024-02-26T02:34:38;60;40;26
40277;PMS7003;25990;52.768;16.930;2024-02-26T02:37:00;44;39;27
40277;PMS7003;25990;52.768;16.930;2024-02-26T02:39:23;58;39;24
40277;PMS7003;25990;52.768;16.930;2024-02-26T02:41:45;51;39;26
40277;PMS7003;25990;52.768;16.930;2024-02-26T02:44:07;49;38;25
40277;PMS7003;25990;52.768;16.930;2024-02-26T02:46:30;57;38;25
40277;PMS7003;25990;52.768;16.930;2024-02-26T02:48:52;63;44;27
40277;PMS7003;25990;52.768;16.930;2024-02-26T02:51:14;51;34;23
40277;PMS7003;25990;52.768;16.930;2024-02-26T02:53:37;48;37;25
40277;PMS7003;25990;52.768;16.930;2024-02-26T02:55:59;62;44;29
40277;PMS7003;25990;52.768;16.930;2024-02-26T02:58:21;59;42;29
40277;PMS7003;25990;52.768;16.930;2024-02-26T03:00:44;50;35;24
40277;PMS7003;25990;52.768;16.930;2024-02-26T03:03:06;45;37;22
40277;PMS7003;25990;52.768;16.930;2024-02-26T03:05:28;51;39;25
40277;PMS7003;25990;52.768;16.930;2024-02-26T03:07:51;66;45;29
40277;PMS7003;25990;52.768;16.930;2024-02-26T03:10:13;47;37;27
40277;PMS7003;25990;52.768;16.930;2024-02-26T03:12:36;51;40;26
40277;PMS7003;25990;52.768;16.930;2024-02-26T03:14:58;59;43;27
40277;PMS7003;25990;52.768;16.930;2024-02-26T03:17:20;49;35;26
40277;PMS7003;25990;52.768;16.930;2024-02-26T03:19:43;25;11;0
40277;PMS7003;25990;52.768;16.930;2024-02-26T03:22:05;56;40;28
40277;PMS7003;25990;52.768;16.930;2024-02-26T03:24:27;52;39;25
40277;PMS7003;25990;52.768;16.930;2024-02-26T03:26:50;63;41;26
40277;PMS7003;25990;52.768;16.930;2024-02-26T03:29:12;58;40;23
40277;PMS7003;25990;52.768;16.930;2024-02-26T03:31:34;64;45;30
40277;PMS7003;25990;52.768;16.930;2024-02-26T03:33:57;64;45;29
40277;PMS7003;25990;52.768;16.930;2024-02-26T03:36:19;66;46;30
40277;PMS7003;25990;52.768;16.930;2024-02-26T03:38:42;59;44;28
40277;PMS7003;25990;52.768;16.930;2024-02-26T03:41:04;57;42;27
40277;PMS7003;25990;52.768;16.930;2024-02-26T03:43:26;54;42;26
40277;PMS7003;25990;52.768;16.930;2024-02-26T03:45:49;59;44;29
40277;PMS7003;25990;52.768;16.930;2024-02-26T03:48:11;59;40;29
40277;PMS7003;25990;52.768;16.930;2024-02-26T03:50:33;62;47;31
40277;PMS7003;25990;52.768;16.930;2024-02-26T03:52:56;79;54;31
40277;PMS7003;25990;52.768;16.930;2024-02-26T03:55:18;70;53;36
40277;PMS7003;25990;52.768;16.930;2024-02-26T03:57:40;79;55;33
40277;PMS7003;25990;52.768;16.930;2024-02-26T04:00:03;78;58;35
40277;PMS7003;25990;52.768;16.930;2024-02-26T04:02:25;80;60;38
40277;PMS7003;25990;52.768;16.930;2024-02-26T04:04:48;79;58;37
40277;PMS7003;25990;52.768;16.930;2024-02-26T04:07:10;82;58;37
40277;PMS7003;25990;52.768;16.930;2024-02-26T04:09:32;75;55;31
40277;PMS7003;25990;52.768;16.930;2024-02-26T04:11:55;78;58;37
40277;PMS7003;25990;52.768;16.930;2024-02-26T04:14:17;64;46;30
40277;PMS7003;25990;52.768;16.930;2024-02-26T04:16:39;66;44;31
40277;PMS7003;25990;52.768;16.930;2024-02-26T04:19:02;67;43;28
40277;PMS7003;25990;52.768;16.930;2024-02-26T04:21:24;53;39;26
40277;PMS7003;25990;52.768;16.930;2024-02-26T04:23:46;61;41;26
40277;PMS7003;25990;52.768;16.930;2024-02-26T04:26:09;47;25;20
40277;PMS7003;25990;52.768;16.930;2024-02-26T04:28:31;63;46;30
40277;PMS7003;25990;52.768;16.930;2024-02-26T04:30:54;66;52;34
40277;PMS7003;25990;52.768;16.930;2024-02-26T04:33:16;66;51;34
40277;PMS7003;25990;52.768;16.930;2024-02-26T04:35:38;75;50;33
40277;PMS7003;25990;52.768;16.930;2024-02-26T04:38:01;75;51;33
40277;PMS7003;25990;52.768;16.930;2024-02-26T04:40:23;66;51;35
40277;PMS7003;25990;52.768;16.930;2024-02-26T04:42:45;56;40;25
40277;PMS7003;25990;52.768;16.930;2024-02-26T04:45:08;66;47;29
40277;PMS7003;25990;52.768;16.930;2024-02-26T04:47:30;64;48;31
40277;PMS7003;25990;52.768;16.930;2024-02-26T04:49:52;58;42;27
40277;PMS7003;25990;52.768;16.930;2024-02-26T04:52:15;60;46;30
40277;PMS7003;25990;52.768;16.930;2024-02-26T04:54:37;52;39;27
40277;PMS7003;25990;52.768;16.930;2024-02-26T04:56:59;65;44;30
40277;PMS7003;25990;52.768;16.930;2024-02-26T04:59:22;62;46;27
40277;PMS7003;25990;52.768;16.930;2024-02-26T05:01:44;33;29;21
40277;PMS7003;25990;52.768;16.930;2024-02-26T05:04:07;59;39;25
40277;PMS7003;25990;52.768;16.930;2024-02-26T05:06:32;66;47;31
40277;PMS7003;25990;52.768;16.930;2024-02-26T05:08:51;67;51;33
40277;PMS7003;25990;52.768;16.930;2024-02-26T05:11:14;64;45;27
40277;PMS7003;25990;52.768;16.930;2024-02-26T05:13:36;67;44;29
40277;PMS7003;25990;52.768;16.930;2024-02-26T05:15:59;59;43;29
40277;PMS7003;25990;52.768;16.930;2024-02-26T05:18:23;70;50;30
40277;PMS7003;25990;52.768;16.930;2024-02-26T05:20:43;50;37;24
40277;PMS7003;25990;52.768;16.930;2024-02-26T05:23:05;65;45;30
40277;PMS7003;25990;52.768;16.930;2024-02-26T05:25:28;64;47;30
40277;PMS7003;25990;52.768;16.930;2024-02-26T05:27:50;36;31;23
40277;PMS7003;25990;52.768;16.930;2024-02-26T05:30:13;46;30;24
40277;PMS7003;25990;52.768;16.930;2024-02-26T05:32:35;54;39;22
40277;PMS7003;25990;52.768;16.930;2024-02-26T05:34:57;61;42;26
40277;PMS7003;25990;52.768;16.930;2024-02-26T05:37:20;63;45;29
40277;PMS7003;25990;52.768;16.930;2024-02-26T05:39:42;68;47;31
40277;PMS7003;25990;52.768;16.930;2024-02-26T05:42:04;53;41;27
40277;PMS7003;25990;52.768;16.930;2024-02-26T05:44:27;52;36;23
40277;PMS7003;25990;52.768;16.930;2024-02-26T05:46:49;65;48;32
40277;PMS7003;25990;52.768;16.930;2024-02-26T05:49:11;55;34;23
40277;PMS7003;25990;52.768;16.930;2024-02-26T05:51:34;64;47;31
40277;PMS7003;25990;52.768;16.930;2024-02-26T05:53:56;57;42;26
40277;PMS7003;25990;52.768;16.930;2024-02-26T05:56:19;67;48;29
40277;PMS7003;25990;52.768;16.930;2024-02-26T05:58:41;54;44;27
40277;PMS7003;25990;52.768;16.930;2024-02-26T06:01:03;63;44;28
40277;PMS7003;25990;52.768;16.930;2024-02-26T06:03:26;61;47;30
40277;PMS7003;25990;52.768;16.930;2024-02-26T06:05:48;67;48;31
40277;PMS7003;25990;52.768;16.930;2024-02-26T06:08:10;69;47;30
40277;PMS7003;25990;52.768;16.930;2024-02-26T06:10:33;68;49;32
40277;PMS7003;25990;52.768;16.930;2024-02-26T06:12:55;60;40;27
40277;PMS7003;25990;52.768;16.930;2024-02-26T06:15:17;68;48;31
40277;PMS7003;25990;52.768;16.930;2024-02-26T06:17:40;59;43;29
40277;PMS7003;25990;52.768;16.930;2024-02-26T06:20:02;59;44;29
40277;PMS7003;25990;52.768;16.930;2024-02-26T06:22:25;65;48;30
40277;PMS7003;25990;52.768;16.930;2024-02-26T06:24:47;63;44;28
40277;PMS7003;25990;52.768;16.930;2024-02-26T06:27:09;68;52;33
40277;PMS7003;25990;52.768;16.930;2024-02-26T06:29:32;66;48;33
40277;PMS7003;25990;52.768;16.930;2024-02-26T06:31:54;73;51;35
40277;PMS7003;25990;52.768;16.930;2024-02-26T06:34:16;75;56;35
40277;PMS7003;25990;52.768;16.930;2024-02-26T06:36:39;74;56;35
40277;PMS7003;25990;52.768;16.930;2024-02-26T06:39:01;73;51;32
40277;PMS7003;25990;52.768;16.930;2024-02-26T06:41:23;60;40;27
40277;PMS7003;25990;52.768;16.930;2024-02-26T06:43:46;67;49;31
40277;PMS7003;25990;52.768;16.930;2024-02-26T06:46:08;74;49;30
40277;PMS7003;25990;52.768;16.930;2024-02-26T06:48:31;72;50;32
40277;PMS7003;25990;52.768;16.930;2024-02-26T06:50:53;76;56;35
40277;PMS7003;25990;52.768;16.930;2024-02-26T06:53:15;70;48;32
40277;PMS7003;25990;52.768;16.930;2024-02-26T06:55:40;76;53;33
40277;PMS7003;25990;52.768;16.930;2024-02-26T06:58:00;69;45;26
40277;PMS7003;25990;52.768;16.930;2024-02-26T07:00:22;66;50;32
40277;PMS7003;25990;52.768;16.930;2024-02-26T07:02:45;79;56;37
40277;PMS7003;25990;52.768;16.930;2024-02-26T07:05:07;72;45;29
40277;PMS7003;25990;52.768;16.930;2024-02-26T07:07:29;68;50;30
40277;PMS7003;25990;52.768;16.930;2024-02-26T07:09:57;58;46;30
40277;PMS7003;25990;52.768;16.930;2024-02-26T07:12:14;76;52;35
40277;PMS7003;25990;52.768;16.930;2024-02-26T07:14:37;63;44;25
40277;PMS7003;25990;52.768;16.930;2024-02-26T07:16:59;60;45;29
40277;PMS7003;25990;52.768;16.930;2024-02-26T07:19:22;74;52;32
40277;PMS7003;25990;52.768;16.930;2024-02-26T07:21:44;65;48;31
40277;PMS7003;25990;52.768;16.930;2024-02-26T07:24:06;67;44;27
40277;PMS7003;25990;52.768;16.930;2024-02-26T07:26:28;64;48;31
40277;PMS7003;25990;52.768;16.930;2024-02-26T07:28:51;69;51;33
40277;PMS7003;25990;52.768;16.930;2024-02-26T07:31:13;80;53;32
40277;PMS7003;25990;52.768;16.930;2024-02-26T07:33:35;62;46;32
40277;PMS7003;25990;52.768;16.930;2024-02-26T07:35:58;63;44;24
40277;PMS7003;25990;52.768;16.930;2024-02-26T07:38:20;65;50;33
40277;PMS7003;25990;52.768;16.930;2024-02-26T07:40:43;43;25;13
40277;PMS7003;25990;52.768;16.930;2024-02-26T07:43:05;58;40;27
40277;PMS7003;25990;52.768;16.930;2024-02-26T07:45:27;62;46;30
40277;PMS7003;25990;52.768;16.930;2024-02-26T07:47:50;61;44;31
40277;PMS7003;25990;52.768;16.930;2024-02-26T07:50:12;61;43;27
40277;PMS7003;25990;52.768;16.930;2024-02-26T07:52:34;43;33;24
40277;PMS7003;25990;52.768;16.930;2024-02-26T07:54:57;61;43;28
40277;PMS7003;25990;52.768;16.930;2024-02-26T07:57:19;66;43;30
40277;PMS7003;25990;52.768;16.930;2024-02-26T07:59:41;65;50;33
40277;PMS7003;25990;52.768;16.930;2024-02-26T08:02:04;62;43;31
40277;PMS7003;25990;52.768;16.930;2024-02-26T08:04:26;60;47;29
40277;PMS7003;25990;52.768;16.930;2024-02-26T08:06:49;56;42;29
40277;PMS7003;25990;52.768;16.930;2024-02-26T08:09:11;55;37;26
40277;PMS7003;25990;52.768;16.930;2024-02-26T08:11:33;46;42;33
40277;PMS7003;25990;52.768;16.930;2024-02-26T08:13:56;61;45;30
40277;PMS7003;25990;52.768;16.930;2024-02-26T08:16:18;59;42;27
40277;PMS7003;25990;52.768;16.930;2024-02-26T08:18:40;73;57;36
40277;PMS7003;25990;52.768;16.930;2024-02-26T08:21:03;73;50;33
40277;PMS7003;25990;52.768;16.930;2024-02-26T08:23:25;60;42;31
40277;PMS7003;25990;52.768;16.930;2024-02-26T08:25:47;72;49;31
40277;PMS7003;25990;52.768;16.930;2024-02-26T08:28:10;66;49;33
40277;PMS7003;25990;52.768;16.930;2024-02-26T08:30:32;61;46;29
40277;PMS7003;25990;52.768;16.930;2024-02-26T08:32:54;70;53;34
40277;PMS7003;25990;52.768;16.930;2024-02-26T08:35:17;67;48;31
40277;PMS7003;25990;52.768;16.930;2024-02-26T08:37:39;69;50;33
40277;PMS7003;25990;52.768;16.930;2024-02-26T08:40:02;77;55;34
40277;PMS7003;25990;52.768;16.930;2024-02-26T08:42:27;79;56;34
40277;PMS7003;25990;52.768;16.930;2024-02-26T08:44:50;81;57;38
40277;PMS7003;25990;52.768;16.930;2024-02-26T08:47:12;56;42;29
40277;PMS7003;25990;52.768;16.930;2024-02-26T08:49:34;69;46;31
40277;PMS7003;25990;52.768;16.930;2024-02-26T08:51:56;50;41;31
40277;PMS7003;25990;52.768;16.930;2024-02-26T08:54:19;66;53;32
40277;PMS7003;25990;52.768;16.930;2024-02-26T08:56:41;72;55;34
40277;PMS7003;25990;52.768;16.930;2024-02-26T08:59:04;67;49;33
40277;PMS7003;25990;52.768;16.930;2024-02-26T09:01:26;76;55;34
40277;PMS7003;25990;52.768;16.930;2024-02-26T09:03:48;73;51;33
40277;PMS7003;25990;52.768;16.930;2024-02-26T09:06:11;57;43;27
40277;PMS7003;25990;52.768;16.930;2024-02-26T09:08:33;71;55;33
40277;PMS7003;25990;52.768;16.930;2024-02-26T09:10:55;73;52;34
40277;PMS7003;25990;52.768;16.930;2024-02-26T09:13:18;64;52;35
40277;PMS7003;25990;52.768;16.930;2024-02-26T09:15:40;71;55;32
40277;PMS7003;25990;52.768;16.930;2024-02-26T09:18:02;51;39;30
40277;PMS7003;25990;52.768;16.930;2024-02-26T09:20:25;60;46;30
40277;PMS7003;25990;52.768;16.930;2024-02-26T09:22:47;76;56;37
40277;PMS7003;25990;52.768;16.930;2024-02-26T09:25:09;55;39;22
40277;PMS7003;25990;52.768;16.930;2024-02-26T09:27:32;76;56;36
40277;PMS7003;25990;52.768;16.930;2024-02-26T09:29:54;73;55;36
40277;PMS7003;25990;52.768;16.930;2024-02-26T09:32:16;71;51;34
40277;PMS7003;25990;52.768;16.930;2024-02-26T09:34:40;69;46;32
40277;PMS7003;25990;52.768;16.930;2024-02-26T09:37:01;65;47;33
40277;PMS7003;25990;52.768;16.930;2024-02-26T09:39:23;73;54;32
40277;PMS7003;25990;52.768;16.930;2024-02-26T09:41:46;73;52;31
40277;PMS7003;25990;52.768;16.930;2024-02-26T09:44:08;74;55;35
40277;PMS7003;25990;52.768;16.930;2024-02-26T09:46:30;68;50;32
40277;PMS7003;25990;52.768;16.930;2024-02-26T09:48:53;60;45;25
40277;PMS7003;25990;52.768;16.930;2024-02-26T09:51:15;78;58;37
40277;PMS7003;25990;52.768;16.930;2024-02-26T09:53:38;69;52;34
40277;PMS7003;25990;52.768;16.930;2024-02-26T09:56:00;68;55;34
40277;PMS7003;25990;52.768;16.930;2024-02-26T09:58:22;58;47;30
40277;PMS7003;25990;52.768;16.930;2024-02-26T10:00:46;75;59;38
40277;PMS7003;25990;52.768;16.930;2024-02-26T10:03:09;43;34;24
40277;PMS7003;25990;52.768;16.930;2024-02-26T10:05:29;67;48;31
40277;PMS7003;25990;52.768;16.930;2024-02-26T10:07:52;36;29;19
40277;PMS7003;25990;52.768;16.930;2024-02-26T10:10:14;50;37;26
40277;PMS7003;25990;52.768;16.930;2024-02-26T10:12:36;68;52;35
40277;PMS7003;25990;52.768;16.930;2024-02-26T10:14:59;60;48;31
40277;PMS7003;25990;52.768;16.930;2024-02-26T10:17:21;47;35;23
40277;PMS7003;25990;52.768;16.930;2024-02-26T10:19:43;62;48;32
40277;PMS7003;25990;52.768;16.930;2024-02-26T10:22:06;58;42;29
40277;PMS7003;25990;52.768;16.930;2024-02-26T10:24:28;63;46;30
40277;PMS7003;25990;52.768;16.930;2024-02-26T10:26:51;49;36;25
40277;PMS7003;25990;52.768;16.930;2024-02-26T10:29:13;26;15;15
40277;PMS7003;25990;52.768;16.930;2024-02-26T10:31:35;23;16;12
40277;PMS7003;25990;52.768;16.930;2024-02-26T10:33:57;50;37;28
40277;PMS7003;25990;52.768;16.930;2024-02-26T10:36:19;46;37;26
40277;PMS7003;25990;52.768;16.930;2024-02-26T10:38:42;48;28;19
40277;PMS7003;25990;52.768;16.930;2024-02-26T10:41:05;49;34;22
40277;PMS7003;25990;52.768;16.930;2024-02-26T10:43:27;40;26;17
40277;PMS7003;25990;52.768;16.930;2024-02-26T10:45:49;42;29;19
40277;PMS7003;25990;52.768;16.930;2024-02-26T10:48:12;35;29;20
40277;PMS7003;25990;52.768;16.930;2024-02-26T10:50:33;19;11;9
40277;PMS7003;25990;52.768;16.930;2024-02-26T10:52:56;36;28;20
40277;PMS7003;25990;52.768;16.930;2024-02-26T10:55:18;21;19;17
40277;PMS7003;25990;52.768;16.930;2024-02-26T10:57:40;34;26;17
40277;PMS7003;25990;52.768;16.930;2024-02-26T11:00:03;28;19;12
40277;PMS7003;25990;52.768;16.930;2024-02-26T11:02:25;41;29;19
40277;PMS7003;25990;52.768;16.930;2024-02-26T11:04:47;28;25;17
40277;PMS7003;25990;52.768;16.930;2024-02-26T11:07:10;13;7;2
40277;PMS7003;25990;52.768;16.930;2024-02-26T11:09:32;17;13;10
40277;PMS7003;25990;52.768;16.930;2024-02-26T11:11:54;33;27;19
40277;PMS7003;25990;52.768;16.930;2024-02-26T11:14:17;22;18;14
40277;PMS7003;25990;52.768;16.930;2024-02-26T11:16:39;26;21;13
40277;PMS7003;25990;52.768;16.930;2024-02-26T11:19:02;35;20;13
40277;PMS7003;25990;52.768;16.930;2024-02-26T11:21:24;26;22;15
40277;PMS7003;25990;52.768;16.930;2024-02-26T11:23:46;9;5;3
40277;PMS7003;25990;52.768;16.930;2024-02-26T11:26:08;35;27;17
40277;PMS7003;25990;52.768;16.930;2024-02-26T11:28:31;26;22;14
40277;PMS7003;25990;52.768;16.930;2024-02-26T11:30:53;32;26;18
40277;PMS7003;25990;52.768;16.930;2024-02-26T11:33:15;33;25;16
40277;PMS7003;25990;52.768;16.930;2024-02-26T11:35:37;33;27;17
40277;PMS7003;25990;52.768;16.930;2024-02-26T11:38:00;46;30;20
40277;PMS7003;25990;52.768;16.930;2024-02-26T11:40:23;37;31;19
40277;PMS7003;25990;52.768;16.930;2024-02-26T11:42:44;21;15;9
40277;PMS7003;25990;52.768;16.930;2024-02-26T11:45:26;19;14;11
40277;PMS7003;25990;52.768;16.930;2024-02-26T11:47:29;28;24;17
40277;PMS7003;25990;52.768;16.930;2024-02-26T11:49:51;31;22;14
40277;PMS7003;25990;52.768;16.930;2024-02-26T11:52:14;19;12;9
40277;PMS7003;25990;52.768;16.930;2024-02-26T11:56:58;21;16;14
40277;PMS7003;25990;52.768;16.930;2024-02-26T11:59:37;13;11;11
40277;PMS7003;25990;52.768;16.930;2024-02-26T12:01:44;16;11;6
40277;PMS7003;25990;52.768;16.930;2024-02-26T12:04:06;18;16;10
40277;PMS7003;25990;52.768;16.930;2024-02-26T12:06:27;31;20;16
40277;PMS7003;25990;52.768;16.930;2024-02-26T12:08:50;24;19;13
40277;PMS7003;25990;52.768;16.930;2024-02-26T12:11:15;16;10;7
40277;PMS7003;25990;52.768;16.930;2024-02-26T12:13:34;32;19;16
40277;PMS7003;25990;52.768;16.930;2024-02-26T12:15:57;25;18;13
40277;PMS7003;25990;52.768;16.930;2024-02-26T12:18:19;11;9;6
40277;PMS7003;25990;52.768;16.930;2024-02-26T12:20:41;17;9;7
40277;PMS7003;25990;52.768;16.930;2024-02-26T12:23:04;15;12;11
40277;PMS7003;25990;52.768;16.930;2024-02-26T12:25:27;25;21;14
40277;PMS7003;25990;52.768;16.930;2024-02-26T12:27:48;16;11;4
40277;PMS7003;25990;52.768;16.930;2024-02-26T12:30:11;15;15;13
40277;PMS7003;25990;52.768;16.930;2024-02-26T12:32:33;16;8;7
40277;PMS7003;25990;52.768;16.930;2024-02-26T12:34:55;24;18;11
40277;PMS7003;25990;52.768;16.930;2024-02-26T12:37:17;11;10;6
40277;PMS7003;25990;52.768;16.930;2024-02-26T12:39:40;28;18;15
40277;PMS7003;25990;52.768;16.930;2024-02-26T12:42:02;19;16;13
40277;PMS7003;25990;52.768;16.930;2024-02-26T12:44:24;17;17;15
40277;PMS7003;25990;52.768;16.930;2024-02-26T12:46:47;18;17;12
40277;PMS7003;25990;52.768;16.930;2024-02-26T12:49:09;12;8;5
40277;PMS7003;25990;52.768;16.930;2024-02-26T12:51:31;20;16;12
40277;PMS7003;25990;52.768;16.930;2024-02-26T12:53:55;21;17;13
40277;PMS7003;25990;52.768;16.930;2024-02-26T12:56:16;23;14;10
40277;PMS7003;25990;52.768;16.930;2024-02-26T12:58:39;15;12;8
40277;PMS7003;25990;52.768;16.930;2024-02-26T13:01:00;15;13;13
40277;PMS7003;25990;52.768;16.930;2024-02-26T13:03:23;11;6;1
40277;PMS7003;25990;52.768;16.930;2024-02-26T13:05:45;24;17;13
40277;PMS7003;25990;52.768;16.930;2024-02-26T13:08:07;11;9;9
40277;PMS7003;25990;52.768;16.930;2024-02-26T13:10:32;20;17;12
40277;PMS7003;25990;52.768;16.930;2024-02-26T13:12:52;21;16;13
40277;PMS7003;25990;52.768;16.930;2024-02-26T13:15:18;20;11;9
40277;PMS7003;25990;52.768;16.930;2024-02-26T13:17:37;22;15;10
40277;PMS7003;25990;52.768;16.930;2024-02-26T13:19:59;9;2;1
40277;PMS7003;25990;52.768;16.930;2024-02-26T13:22:21;16;15;11
40277;PMS7003;25990;52.768;16.930;2024-02-26T13:24:43;19;13;9
40277;PMS7003;25990;52.768;16.930;2024-02-26T13:27:06;20;17;15
40277;PMS7003;25990;52.768;16.930;2024-02-26T13:29:28;17;10;9
40277;PMS7003;25990;52.768;16.930;2024-02-26T13:31:53;22;10;9
40277;PMS7003;25990;52.768;16.930;2024-02-26T13:36:35;20;16;13
40277;PMS7003;25990;52.768;16.930;2024-02-26T13:38:57;9;3;2
40277;PMS7003;25990;52.768;16.930;2024-02-26T13:41:19;12;8;6
40277;PMS7003;25990;52.768;16.930;2024-02-26T13:43:42;14;10;8
40277;PMS7003;25990;52.768;16.930;2024-02-26T13:46:04;18;17;11
40277;PMS7003;25990;52.768;16.930;2024-02-26T13:48:26;12;11;8
40277;PMS7003;25990;52.768;16.930;2024-02-26T13:50:49;14;13;8
40277;PMS7003;25990;52.768;16.930;2024-02-26T13:53:11;21;11;7
40277;PMS7003;25990;52.768;16.930;2024-02-26T13:55:33;16;13;10
40277;PMS7003;25990;52.768;16.930;2024-02-26T13:57:56;17;14;11
40277;PMS7003;25990;52.768;16.930;2024-02-26T14:00:18;19;12;7
40277;PMS7003;25990;52.768;16.930;2024-02-26T14:02:40;15;12;9
40277;PMS7003;25990;52.768;16.930;2024-02-26T14:05:02;17;13;11
40277;PMS7003;25990;52.768;16.930;2024-02-26T14:07:25;15;13;10
40277;PMS7003;25990;52.768;16.930;2024-02-26T14:09:47;15;9;5
40277;PMS7003;25990;52.768;16.930;2024-02-26T14:12:09;13;8;4
40277;PMS7003;25990;52.768;16.930;2024-02-26T14:14:32;15;11;9
40277;PMS7003;25990;52.768;16.930;2024-02-26T14:16:54;14;10;8
40277;PMS7003;25990;52.768;16.930;2024-02-26T14:19:16;15;13;10
40277;PMS7003;25990;52.768;16.930;2024-02-26T14:21:38;18;14;10
40277;PMS7003;25990;52.768;16.930;2024-02-26T14:24:01;14;8;6
40277;PMS7003;25990;52.768;16.930;2024-02-26T14:26:23;7;5;3
40277;PMS7003;25990;52.768;16.930;2024-02-26T14:28:45;10;10;8
40277;PMS7003;25990;52.768;16.930;2024-02-26T14:31:08;14;10;6
40277;PMS7003;25990;52.768;16.930;2024-02-26T14:33:30;17;11;8
40277;PMS7003;25990;52.768;16.930;2024-02-26T14:35:52;14;10;8
40277;PMS7003;25990;52.768;16.930;2024-02-26T14:38:17;16;11;6
40277;PMS7003;25990;52.768;16.930;2024-02-26T14:40:37;26;21;15
40277;PMS7003;25990;52.768;16.930;2024-02-26T14:42:59;35;26;19
40277;PMS7003;25990;52.768;16.930;2024-02-26T14:45:21;32;26;18
40277;PMS7003;25990;52.768;16.930;2024-02-26T14:47:44;30;24;17
40277;PMS7003;25990;52.768;16.930;2024-02-26T14:50:06;33;25;17
40277;PMS7003;25990;52.768;16.930;2024-02-26T14:52:28;34;23;15
40277;PMS7003;25990;52.768;16.930;2024-02-26T14:54:51;32;22;17
40277;PMS7003;25990;52.768;16.930;2024-02-26T14:57:13;34;22;16
40277;PMS7003;25990;52.768;16.930;2024-02-26T14:59:35;31;23;15
40277;PMS7003;25990;52.768;16.930;2024-02-26T15:01:58;26;18;12
40277;PMS7003;25990;52.768;16.930;2024-02-26T15:04:20;26;18;16